Time;durP1;ratioP1;P1;durP2;ratioP2;P2;SDS_P1;SDS_P2;PMS_P1;PMS_P2;Temp;Humidity;BMP_temperature;BMP_pressure;BME280_temperature;BME280_humidity;BME280_pressure;Samples;Min_cycle;Max_cycle;Signal;HPM_P1;HPM_P2
2022/03/23 00:01:34;;;;;;;18.58;11.30;;;10.30;92.60;;;;;;5045315;28;20055;-72
2022/03/23 00:04:01;;;;;;;18.25;11.35;;;10.20;93.20;;;;;;5044548;28;20726;-73
2022/03/23 00:06:27;;;;;;;16.15;11.25;;;10.20;93.00;;;;;;5036036;28;20024;-73
2022/03/23 00:08:53;;;;;;;17.33;11.07;;;10.20;93.00;;;;;;5038805;28;20590;-73
2022/03/23 00:11:19;;;;;;;16.17;11.13;;;10.30;92.60;;;;;;5040642;28;20030;-73
2022/03/23 00:13:45;;;;;;;17.33;11.27;;;10.30;93.00;;;;;;5041464;28;20525;-72
2022/03/23 00:16:11;;;;;;;15.52;10.57;;;10.30;92.80;;;;;;5037487;28;20043;-73
2022/03/23 00:18:37;;;;;;;15.95;10.95;;;10.30;92.90;;;;;;5035277;28;20017;-73
2022/03/23 00:21:03;;;;;;;14.50;10.13;;;10.20;93.00;;;;;;5036986;28;20194;-72
2022/03/23 00:23:28;;;;;;;15.35;10.02;;;10.10;93.20;;;;;;5046887;28;20081;-73
2022/03/23 00:25:54;;;;;;;16.33;10.52;;;10.10;93.40;;;;;;5043432;28;20497;-72
2022/03/23 00:28:20;;;;;;;17.00;10.65;;;10.10;93.20;;;;;;5043490;28;20029;-72
2022/03/23 00:30:49;;;;;;;14.98;10.00;;;10.10;92.90;;;;;;5043681;28;20143;-73
2022/03/23 00:33:15;;;;;;;16.02;10.43;;;10.10;92.60;;;;;;5046704;28;20055;-72
2022/03/23 00:35:41;;;;;;;16.45;10.38;;;10.10;92.50;;;;;;5050632;28;20029;-71
2022/03/23 00:38:07;;;;;;;15.00;10.60;;;10.10;92.70;;;;;;5043659;28;20032;-73
2022/03/23 00:40:33;;;;;;;16.52;10.40;;;10.00;91.90;;;;;;5052079;28;20044;-72
2022/03/23 00:43:01;;;;;;;15.98;10.85;;;10.00;91.80;;;;;;5052319;28;20055;-73
2022/03/23 00:45:28;;;;;;;15.25;10.20;;;9.90;92.10;;;;;;5052294;28;20454;-72
2022/03/23 00:47:55;;;;;;;18.58;12.73;;;10.00;91.80;;;;;;5045060;28;20036;-72
2022/03/23 00:50:20;;;;;;;17.88;12.73;;;9.70;93.50;;;;;;5044773;28;20060;-72
2022/03/23 00:52:47;;;;;;;18.77;13.18;;;9.60;94.50;;;;;;5043220;28;20559;-72
2022/03/23 00:55:15;;;;;;;19.40;13.27;;;9.50;94.80;;;;;;5048676;28;20041;-72
2022/03/23 00:57:41;;;;;;;19.67;14.18;;;9.40;94.90;;;;;;5048875;28;20548;-72
2022/03/23 01:00:12;;;;;;;20.70;13.63;;;9.30;94.90;;;;;;5044673;28;20036;-73
2022/03/23 01:02:39;;;;;;;18.95;13.57;;;9.20;95.10;;;;;;5044335;28;20052;-73
2022/03/23 01:05:05;;;;;;;19.63;14.40;;;9.10;96.10;;;;;;5043982;28;20026;-72
2022/03/23 01:07:31;;;;;;;18.15;13.50;;;9.10;95.90;;;;;;5046570;28;20053;-72
2022/03/23 01:09:57;;;;;;;19.17;13.00;;;9.20;95.50;;;;;;5049036;28;20139;-72
2022/03/23 01:12:23;;;;;;;19.25;12.30;;;9.30;94.50;;;;;;5045922;28;20091;-72
2022/03/23 01:14:49;;;;;;;17.27;11.13;;;9.40;92.90;;;;;;5044131;28;20116;-72
2022/03/23 01:17:14;;;;;;;20.13;11.73;;;9.50;92.10;;;;;;5045245;28;20100;-72
2022/03/23 01:19:40;;;;;;;20.67;12.13;;;9.60;91.50;;;;;;5047890;28;20104;-72
2022/03/23 01:22:06;;;;;;;18.20;13.30;;;9.60;92.80;;;;;;5052262;28;20036;-72
2022/03/23 01:24:32;;;;;;;19.05;12.38;;;9.40;93.80;;;;;;5050238;28;20095;-72
2022/03/23 01:26:58;;;;;;;16.15;12.25;;;9.40;93.90;;;;;;5046294;28;20460;-72
2022/03/23 01:29:24;;;;;;;16.25;10.75;;;9.40;93.80;;;;;;5045093;28;20025;-72
2022/03/23 01:31:50;;;;;;;16.10;10.68;;;9.50;93.10;;;;;;5048501;28;20018;-72
2022/03/23 01:34:16;;;;;;;21.20;13.00;;;9.50;93.50;;;;;;5053249;28;20032;-72
2022/03/23 01:36:41;;;;;;;19.77;13.68;;;9.30;95.30;;;;;;5053877;28;20024;-72
2022/03/23 01:39:07;;;;;;;21.02;13.70;;;8.90;95.90;;;;;;5052554;28;20040;-73
2022/03/23 01:41:38;;;;;;;22.88;14.77;;;8.80;97.20;;;;;;5052467;28;20021;-72
2022/03/23 01:44:17;;;;;;;23.27;15.02;;;8.70;97.60;;;;;;5053266;28;20514;-72
2022/03/23 01:47:09;;;;;;;21.83;14.73;;;8.60;98.00;;;;;;5053520;28;20389;-72
2022/03/23 01:49:39;;;;;;;21.40;15.20;;;8.60;98.20;;;;;;5049311;28;20025;-72
2022/03/23 01:52:07;;;;;;;23.40;14.70;;;8.50;98.50;;;;;;5053286;28;20028;-72
2022/03/23 01:54:33;;;;;;;20.92;15.30;;;8.60;97.90;;;;;;5053194;28;20064;-73
2022/03/23 01:57:00;;;;;;;21.13;16.27;;;8.60;98.00;;;;;;5053412;28;20021;-72
2022/03/23 01:59:26;;;;;;;23.20;15.02;;;8.70;97.80;;;;;;5052237;28;20066;-72
2022/03/23 02:01:53;;;;;;;20.05;15.15;;;8.60;98.30;;;;;;5055330;28;20054;-72
2022/03/23 02:04:19;;;;;;;20.83;15.63;;;8.70;98.20;;;;;;5053153;28;20028;-72
2022/03/23 02:06:45;;;;;;;24.88;14.77;;;8.70;98.40;;;;;;5053041;28;20037;-72
2022/03/23 02:09:11;;;;;;;21.50;14.98;;;8.70;98.10;;;;;;5052749;28;20091;-72
2022/03/23 02:11:38;;;;;;;23.70;15.48;;;8.80;98.60;;;;;;5052036;28;20021;-72
2022/03/23 02:14:04;;;;;;;21.83;15.32;;;8.70;98.40;;;;;;5052703;28;20393;-72
2022/03/23 02:16:29;;;;;;;23.67;15.57;;;8.60;98.20;;;;;;5052171;28;20025;-72
2022/03/23 02:18:55;;;;;;;21.25;16.30;;;8.70;98.30;;;;;;5052998;28;20025;-72
2022/03/23 02:21:21;;;;;;;22.60;15.13;;;8.60;98.70;;;;;;5052762;28;20048;-72
2022/03/23 02:23:46;;;;;;;22.38;15.45;;;8.70;98.40;;;;;;5052403;28;20024;-72
2022/03/23 02:26:16;;;;;;;22.67;15.88;;;8.60;98.40;;;;;;5051923;28;20405;-72
2022/03/23 02:28:41;;;;;;;26.08;14.68;;;8.60;98.50;;;;;;5052689;28;20397;-72
2022/03/23 02:31:07;;;;;;;18.40;14.13;;;8.60;98.30;;;;;;5062195;28;20033;-72
2022/03/23 02:33:33;;;;;;;26.25;15.57;;;8.60;98.40;;;;;;5047791;28;20035;-72
2022/03/23 02:35:59;;;;;;;21.77;15.35;;;8.50;98.70;;;;;;5052278;28;20060;-72
2022/03/23 02:38:25;;;;;;;22.58;14.70;;;8.50;98.60;;;;;;5051901;28;20025;-72
2022/03/23 02:40:50;;;;;;;25.35;15.45;;;8.50;98.50;;;;;;5050323;28;20035;-72
2022/03/23 02:43:16;;;;;;;21.63;14.38;;;8.60;97.90;;;;;;5046365;28;20128;-72
2022/03/23 02:45:42;;;;;;;24.13;14.00;;;8.50;97.60;;;;;;5051756;28;20032;-72
2022/03/23 02:48:09;;;;;;;24.33;14.98;;;8.60;97.90;;;;;;5052590;28;20032;-72
2022/03/23 02:50:35;;;;;;;21.77;14.65;;;8.60;97.70;;;;;;5051247;28;20112;-72
2022/03/23 03:01:53;;;;;;;22.77;13.80;;;8.30;98.40;;;;;;5052475;28;20083;-72
2022/03/23 03:04:22;;;;;;;;;;;8.10;98.40;;;;;;5052715;28;20133;-72
2022/03/23 03:06:49;;;;;;;20.30;13.27;;;8.20;98.40;;;;;;5052833;28;20307;-72
2022/03/23 03:09:15;;;;;;;19.75;13.23;;;8.20;98.00;;;;;;5052323;28;20390;-72
2022/03/23 03:11:44;;;;;;;18.63;13.07;;;8.20;97.50;;;;;;5051189;28;20025;-72
2022/03/23 03:14:13;;;;;;;19.30;11.88;;;8.30;97.00;;;;;;5051743;28;20402;-72
2022/03/23 03:16:39;;;;;;;20.75;14.00;;;8.40;96.30;;;;;;5051929;28;20021;-72
2022/03/23 03:19:05;;;;;;;20.60;13.63;;;8.30;96.90;;;;;;5052256;28;20485;-72
2022/03/23 03:21:32;;;;;;;20.50;13.95;;;8.30;97.20;;;;;;5050318;28;20033;-73
2022/03/23 03:23:58;;;;;;;20.83;13.63;;;8.40;96.70;;;;;;5051992;28;20413;-72
2022/03/23 03:26:24;;;;;;;19.13;13.88;;;8.30;97.20;;;;;;5049394;28;20032;-72
2022/03/23 03:28:50;;;;;;;18.60;13.00;;;8.20;97.20;;;;;;5051670;28;20033;-72
2022/03/23 03:31:16;;;;;;;16.48;11.70;;;8.30;97.00;;;;;;5047880;28;20029;-72
2022/03/23 03:33:43;;;;;;;16.58;12.13;;;8.40;96.40;;;;;;5046838;28;20035;-72
2022/03/23 03:36:09;;;;;;;18.25;11.30;;;8.30;96.50;;;;;;5046322;28;20029;-72
2022/03/23 03:38:36;;;;;;;16.40;11.95;;;8.40;96.10;;;;;;5042912;28;20041;-73
2022/03/23 03:41:02;;;;;;;16.73;11.45;;;8.40;96.30;;;;;;5049634;28;20021;-72
2022/03/23 03:43:28;;;;;;;18.35;11.68;;;8.30;96.70;;;;;;5043381;28;20041;-72
2022/03/23 03:45:54;;;;;;;19.20;11.88;;;8.30;96.50;;;;;;5047053;28;20040;-72
2022/03/23 03:48:20;;;;;;;17.88;12.15;;;8.40;96.30;;;;;;5046694;28;20513;-72
2022/03/23 03:50:46;;;;;;;17.80;11.80;;;8.50;96.30;;;;;;5042163;28;20049;-72
2022/03/23 03:53:12;;;;;;;15.30;11.40;;;8.50;95.70;;;;;;5048527;28;20485;-72
2022/03/23 03:55:40;;;;;;;17.58;12.10;;;8.50;96.50;;;;;;5065363;28;20035;-72
2022/03/23 03:58:08;;;;;;;19.35;11.77;;;8.50;96.60;;;;;;5047828;28;20032;-72
2022/03/23 04:00:34;;;;;;;18.27;12.07;;;8.40;95.80;;;;;;5051530;28;20043;-72
2022/03/23 04:03:00;;;;;;;21.85;12.38;;;8.50;95.80;;;;;;5047403;28;20041;-72
2022/03/23 04:05:28;;;;;;;20.70;11.95;;;8.30;96.70;;;;;;5047539;28;20100;-72
2022/03/23 04:07:55;;;;;;;17.27;12.95;;;8.40;96.90;;;;;;5050186;28;20033;-72
2022/03/23 04:10:21;;;;;;;20.15;12.90;;;8.40;97.00;;;;;;5047183;28;20053;-72
2022/03/23 04:12:47;;;;;;;19.67;12.88;;;8.30;97.40;;;;;;5053222;28;20025;-72
2022/03/23 04:15:14;;;;;;;21.80;13.43;;;8.20;97.60;;;;;;5053217;28;20032;-72
2022/03/23 04:17:43;;;;;;;18.77;13.02;;;8.20;98.10;;;;;;5049274;28;20505;-72
2022/03/23 04:20:10;;;;;;;18.73;13.27;;;8.10;98.00;;;;;;5050685;28;20068;-72
2022/03/23 04:22:38;;;;;;;21.98;14.75;;;8.10;98.30;;;;;;5049999;28;20120;-72
2022/03/23 04:25:06;;;;;;;20.38;14.20;;;8.10;98.40;;;;;;5052705;28;20273;-71
2022/03/23 04:27:34;;;;;;;18.55;14.05;;;8.00;98.80;;;;;;5053675;28;20027;-72
2022/03/23 04:30:00;;;;;;;21.85;13.98;;;8.00;98.60;;;;;;5049876;28;20025;-72
2022/03/23 04:32:26;;;;;;;22.27;15.30;;;8.00;98.80;;;;;;5044952;28;20028;-72
2022/03/23 04:34:51;;;;;;;21.73;14.52;;;8.00;98.60;;;;;;5049636;28;20102;-72
2022/03/23 04:37:17;;;;;;;21.15;15.10;;;8.00;98.30;;;;;;5049655;28;20076;-72
2022/03/23 04:39:43;;;;;;;21.63;14.77;;;8.00;98.80;;;;;;5053858;28;20025;-72
2022/03/23 04:42:09;;;;;;;22.35;14.40;;;7.90;98.60;;;;;;5049942;28;20066;-72
2022/03/23 04:44:34;;;;;;;20.63;14.30;;;7.80;98.60;;;;;;5048605;28;20032;-72
2022/03/23 04:47:00;;;;;;;19.15;14.93;;;7.80;98.50;;;;;;5049753;28;20396;-72
2022/03/23 04:49:26;;;;;;;19.35;13.95;;;7.80;98.40;;;;;;5048949;28;20044;-72
2022/03/23 04:51:51;;;;;;;20.67;13.30;;;7.80;97.80;;;;;;5049965;28;20021;-72
2022/03/23 04:54:18;;;;;;;20.38;13.23;;;7.80;97.60;;;;;;5048566;28;20550;-72
2022/03/23 04:56:43;;;;;;;19.83;12.82;;;7.80;98.10;;;;;;5045292;28;20482;-72
2022/03/23 04:59:09;;;;;;;19.95;14.05;;;7.90;97.60;;;;;;5050128;28;20040;-72
2022/03/23 05:01:35;;;;;;;18.45;13.57;;;7.90;97.10;;;;;;5046451;28;20502;-72
2022/03/23 05:04:01;;;;;;;19.27;13.93;;;8.00;97.40;;;;;;5049425;28;20024;-72
2022/03/23 05:06:27;;;;;;;21.23;12.95;;;8.00;97.00;;;;;;5049510;28;20120;-72
2022/03/23 05:08:52;;;;;;;17.90;13.20;;;7.90;97.10;;;;;;5046060;28;20021;-72
2022/03/23 05:11:18;;;;;;;18.83;13.40;;;8.00;96.80;;;;;;5044844;28;20029;-72
2022/03/23 05:13:44;;;;;;;20.80;12.52;;;8.00;97.20;;;;;;5050406;28;20105;-72
2022/03/23 05:16:10;;;;;;;17.75;12.55;;;7.90;97.20;;;;;;5049022;28;20048;-72
2022/03/23 05:18:35;;;;;;;15.52;11.82;;;8.00;97.00;;;;;;5045765;28;20017;-72
2022/03/23 05:21:02;;;;;;;17.90;12.75;;;8.00;96.40;;;;;;5045877;28;20044;-72
2022/03/23 05:23:28;;;;;;;17.48;11.57;;;7.90;96.90;;;;;;5044672;28;20022;-72
2022/03/23 05:25:54;;;;;;;18.10;12.23;;;7.80;96.90;;;;;;5046711;28;20075;-72
2022/03/23 05:28:20;;;;;;;16.67;12.15;;;7.90;96.60;;;;;;5044253;28;20404;-72
2022/03/23 05:30:45;;;;;;;20.83;13.32;;;7.90;96.80;;;;;;5052235;28;20029;-71
2022/03/23 05:33:12;;;;;;;17.33;12.20;;;7.90;96.90;;;;;;5043053;28;20024;-72
2022/03/23 05:35:38;;;;;;;17.80;12.57;;;7.80;96.90;;;;;;5046334;28;20374;-72
2022/03/23 05:38:03;;;;;;;17.60;12.25;;;7.80;96.70;;;;;;5046719;28;20032;-72
2022/03/23 05:40:29;;;;;;;16.45;12.23;;;7.90;96.60;;;;;;5046545;28;20273;-72
2022/03/23 05:42:56;;;;;;;16.95;12.25;;;7.80;96.90;;;;;;5052862;28;20021;-72
2022/03/23 05:45:21;;;;;;;19.55;11.80;;;7.80;96.90;;;;;;5049321;28;20029;-72
2022/03/23 05:47:49;;;;;;;16.65;12.32;;;7.70;97.10;;;;;;5046473;28;20092;-72
2022/03/23 05:50:15;;;;;;;18.25;12.30;;;7.60;97.30;;;;;;5046067;28;20386;-72
2022/03/23 05:52:41;;;;;;;16.23;12.65;;;7.70;97.10;;;;;;5046736;28;20440;-71
2022/03/23 05:55:08;;;;;;;16.45;12.18;;;7.70;97.00;;;;;;5051679;28;20075;-72
2022/03/23 05:57:34;;;;;;;19.02;13.00;;;7.80;96.70;;;;;;5045147;28;20044;-73
2022/03/23 06:00:00;;;;;;;19.20;13.55;;;7.80;96.20;;;;;;5044992;28;20025;-73
2022/03/23 06:02:26;;;;;;;19.10;13.85;;;7.90;95.70;;;;;;5052026;28;20045;-73
2022/03/23 06:04:52;;;;;;;18.38;12.93;;;7.90;95.60;;;;;;5045428;28;20082;-73
2022/03/23 06:07:18;;;;;;;22.48;14.73;;;7.90;95.40;;;;;;5046411;28;20084;-73
2022/03/23 06:09:44;;;;;;;21.10;14.48;;;7.80;95.50;;;;;;5049595;28;20486;-73
2022/03/23 06:12:11;;;;;;;15.80;13.77;;;7.90;95.40;;;;;;5047380;28;20036;-73
2022/03/23 06:14:37;;;;;;;20.00;14.68;;;7.90;95.60;;;;;;5043867;28;20393;-73
2022/03/23 06:17:03;;;;;;;22.00;14.38;;;7.90;95.50;;;;;;5049417;28;20037;-73
2022/03/23 06:19:29;;;;;;;21.90;15.45;;;7.90;95.50;;;;;;5045719;28;20100;-73
2022/03/23 06:21:54;;;;;;;21.02;16.27;;;7.90;96.50;;;;;;5043294;28;20036;-73
2022/03/23 06:24:20;;;;;;;21.98;16.73;;;7.90;96.00;;;;;;5046631;28;20028;-73
2022/03/23 06:26:46;;;;;;;19.92;15.70;;;7.90;95.70;;;;;;5044186;28;20063;-74
2022/03/23 06:29:12;;;;;;;20.55;14.95;;;7.90;95.70;;;;;;5045041;28;20105;-73
2022/03/23 06:31:37;;;;;;;20.10;15.02;;;7.90;95.90;;;;;;5044332;28;20111;-74
2022/03/23 06:34:04;;;;;;;18.60;14.13;;;8.00;95.70;;;;;;5042067;28;20562;-73
2022/03/23 06:36:30;;;;;;;21.95;14.90;;;8.00;95.30;;;;;;5048598;28;20052;-73
2022/03/23 06:38:55;;;;;;;21.20;15.65;;;8.00;95.50;;;;;;5043902;28;20060;-81
2022/03/23 06:41:21;;;;;;;23.27;15.50;;;8.00;95.30;;;;;;5044932;28;20409;-81
2022/03/23 06:43:47;;;;;;;22.60;14.48;;;8.10;95.40;;;;;;5048884;28;20092;-79
2022/03/23 06:46:12;;;;;;;22.52;14.00;;;8.10;95.40;;;;;;5045791;28;20037;-76
2022/03/23 06:48:38;;;;;;;20.55;13.50;;;8.20;95.40;;;;;;5051723;28;20530;-75
2022/03/23 06:51:04;;;;;;;20.65;13.40;;;8.30;95.20;;;;;;5052898;28;20509;-76
2022/03/23 06:53:30;;;;;;;20.85;13.65;;;8.40;95.00;;;;;;5043536;28;20036;-75
2022/03/23 06:55:55;;;;;;;19.42;13.07;;;8.40;94.70;;;;;;5050096;28;20025;-75
2022/03/23 06:58:21;;;;;;;21.45;13.52;;;8.50;94.60;;;;;;5047114;28;20445;-75
2022/03/23 07:00:47;;;;;;;18.52;13.27;;;8.50;94.40;;;;;;5044584;28;20045;-75
2022/03/23 07:03:13;;;;;;;20.83;13.88;;;8.50;94.50;;;;;;5043981;28;20091;-76
2022/03/23 07:05:38;;;;;;;18.70;13.55;;;8.40;94.80;;;;;;5041722;28;20121;-74
2022/03/23 07:10:50;;;;;;;21.77;15.15;;;8.50;94.70;;;;;;5048830;28;20102;-76
2022/03/23 07:13:16;;;;;;;21.17;14.60;;;8.50;94.60;;;;;;5047237;28;20079;-76
2022/03/23 07:15:42;;;;;;;20.70;15.38;;;8.60;94.60;;;;;;5044369;28;20032;-76
2022/03/23 07:18:10;;;;;;;20.98;15.25;;;8.60;94.70;;;;;;5045323;28;20036;-76
2022/03/23 07:20:36;;;;;;;25.17;15.38;;;8.70;94.50;;;;;;5042828;28;20029;-77
2022/03/23 07:23:02;;;;;;;23.90;14.65;;;8.70;94.40;;;;;;5043862;28;20094;-76
2022/03/23 07:25:27;;;;;;;21.42;13.65;;;8.80;95.00;;;;;;5045279;28;20486;-77
2022/03/23 07:27:53;;;;;;;21.58;13.75;;;8.90;95.10;;;;;;5050346;28;20059;-76
2022/03/23 07:30:20;;;;;;;22.02;13.98;;;8.90;95.10;;;;;;5049668;28;20029;-76
2022/03/23 07:32:46;;;;;;;18.10;13.20;;;8.90;95.50;;;;;;5039457;28;20411;-76
2022/03/23 07:35:11;;;;;;;16.27;12.75;;;9.00;95.30;;;;;;5047048;28;20025;-78
2022/03/23 07:37:37;;;;;;;23.80;13.35;;;9.00;95.30;;;;;;5049263;28;20460;-79
2022/03/23 07:40:05;;;;;;;18.23;13.32;;;9.10;95.30;;;;;;5053164;28;20213;-77
2022/03/23 07:42:30;;;;;;;21.75;14.82;;;9.10;95.50;;;;;;5052404;28;20501;-78
2022/03/23 07:44:56;;;;;;;21.90;16.00;;;9.20;95.20;;;;;;5046343;28;20033;-77
2022/03/23 07:47:22;;;;;;;22.95;17.65;;;9.30;95.80;;;;;;5047597;28;20037;-78
2022/03/23 07:49:48;;;;;;;26.23;20.33;;;9.40;95.30;;;;;;5048376;28;20095;-78
2022/03/23 07:52:14;;;;;;;30.13;20.90;;;9.40;95.80;;;;;;5052027;28;20029;-78
2022/03/23 07:54:40;;;;;;;24.42;17.48;;;9.60;95.80;;;;;;5053603;28;20102;-76
2022/03/23 07:57:06;;;;;;;24.13;16.45;;;9.60;95.60;;;;;;5047630;28;20473;-78
2022/03/23 07:59:31;;;;;;;23.42;16.67;;;9.80;95.50;;;;;;5046962;28;20428;-79
2022/03/23 08:01:57;;;;;;;24.63;17.38;;;9.90;95.40;;;;;;5046769;28;20057;-80
2022/03/23 08:04:23;;;;;;;27.65;19.92;;;10.00;95.80;;;;;;5050649;28;20083;-81
2022/03/23 08:06:48;;;;;;;39.25;29.55;;;10.10;95.60;;;;;;5055401;28;20032;-80
2022/03/23 08:09:14;;;;;;;39.78;31.17;;;10.10;95.60;;;;;;5049939;28;20020;-81
2022/03/23 08:11:40;;;;;;;38.58;30.30;;;10.20;95.40;;;;;;5042060;28;20029;-80
2022/03/23 08:14:06;;;;;;;38.92;30.25;;;10.30;95.30;;;;;;5044737;28;20409;-80
2022/03/23 08:16:31;;;;;;;31.45;23.80;;;10.40;96.30;;;;;;5044477;28;20033;-82
2022/03/23 08:18:57;;;;;;;27.05;20.30;;;10.60;95.40;;;;;;5049703;28;20021;-83
2022/03/23 08:21:23;;;;;;;28.38;19.35;;;10.60;95.50;;;;;;5045762;28;20250;-82
2022/03/23 08:23:50;;;;;;;25.33;19.10;;;10.70;95.20;;;;;;5042672;28;20029;-83
2022/03/23 08:26:16;;;;;;;29.15;19.75;;;10.80;94.90;;;;;;5044059;28;20100;-83
2022/03/23 08:28:45;;;;;;;25.17;18.65;;;10.90;94.60;;;;;;5045150;28;20017;-83
2022/03/23 08:31:11;;;;;;;27.70;18.52;;;11.00;95.40;;;;;;5049472;28;20033;-82
2022/03/23 08:33:38;;;;;;;24.33;18.35;;;11.20;95.60;;;;;;5048857;28;20025;-82
2022/03/23 08:36:06;;;;;;;28.05;17.17;;;11.30;95.30;;;;;;5052500;28;20020;-81
2022/03/23 08:38:32;;;;;;;23.67;16.77;;;11.40;94.70;;;;;;5047984;28;20029;-83
2022/03/23 08:40:59;;;;;;;19.90;15.95;;;11.60;94.00;;;;;;5045470;28;20064;-83
2022/03/23 08:43:24;;;;;;;24.73;16.40;;;11.70;94.00;;;;;;5049823;28;20060;-80
2022/03/23 08:45:50;;;;;;;22.45;16.90;;;11.90;93.30;;;;;;5050623;28;20021;-78
2022/03/23 08:48:19;;;;;;;21.05;15.55;;;12.00;93.80;;;;;;5044344;28;20046;-78
2022/03/23 08:50:50;;;;;;;16.77;13.75;;;12.20;92.80;;;;;;5045068;28;20071;-78
2022/03/23 08:53:16;;;;;;;18.67;15.10;;;12.50;91.50;;;;;;5047344;28;20509;-78
2022/03/23 08:55:42;;;;;;;18.42;13.55;;;13.00;91.40;;;;;;5054348;28;20075;-80
2022/03/23 08:58:08;;;;;;;19.55;14.32;;;16.00;81.70;;;;;;5064824;28;20037;-81
2022/03/23 09:00:35;;;;;;;21.40;13.85;;;18.90;73.30;;;;;;5054188;28;20036;-79
2022/03/23 09:03:01;;;;;;;18.63;12.82;;;19.80;65.50;;;;;;5053724;28;20033;-79
2022/03/23 09:05:27;;;;;;;18.10;13.02;;;18.10;68.30;;;;;;5052641;28;20024;-77
2022/03/23 09:07:53;;;;;;;22.23;13.38;;;18.90;67.90;;;;;;5053368;28;20118;-80
2022/03/23 09:10:20;;;;;;;14.65;12.25;;;21.70;60.40;;;;;;5054070;28;20060;-80
2022/03/23 09:12:46;;;;;;;17.75;12.30;;;23.30;56.30;;;;;;5055937;28;20497;-78
2022/03/23 09:15:14;;;;;;;16.65;13.32;;;24.20;52.50;;;;;;5045598;28;20013;-79
2022/03/23 09:17:41;;;;;;;19.48;13.10;;;25.00;48.70;;;;;;5052303;28;20052;-79
2022/03/23 09:20:09;;;;;;;16.63;12.43;;;25.50;49.10;;;;;;5053801;28;20029;-80
2022/03/23 09:22:35;;;;;;;14.63;12.23;;;25.70;49.00;;;;;;5053435;28;20448;-80
2022/03/23 09:25:08;;;;;;;15.98;11.60;;;25.90;46.80;;;;;;5053238;28;20029;-80
2022/03/23 09:27:39;;;;;;;14.73;11.52;;;26.10;46.50;;;;;;5052374;28;20037;-80
2022/03/23 09:30:06;;;;;;;16.70;11.32;;;26.20;46.10;;;;;;5053310;28;20075;-81
2022/03/23 09:32:32;;;;;;;15.60;11.75;;;25.90;46.40;;;;;;5046896;28;20029;-81
2022/03/23 09:34:58;;;;;;;14.25;11.57;;;25.70;46.20;;;;;;5052968;28;20028;-83
2022/03/23 09:40:08;;;;;;;15.57;10.85;;;24.80;47.50;;;;;;5053808;28;20027;-80
2022/03/23 09:42:35;;;;;;;12.95;9.00;;;22.60;49.70;;;;;;5048563;28;20079;-81
2022/03/23 09:45:01;;;;;;;13.45;8.73;;;20.70;52.90;;;;;;5053243;28;20581;-81
2022/03/23 09:47:27;;;;;;;9.70;6.38;;;19.20;52.50;;;;;;5051828;28;20100;-82
2022/03/23 09:49:53;;;;;;;10.10;6.38;;;17.70;49.90;;;;;;5048965;28;20021;-80
2022/03/23 09:52:19;;;;;;;11.15;8.30;;;16.50;52.60;;;;;;5053040;28;20041;-80
2022/03/23 09:54:45;;;;;;;12.23;8.95;;;16.60;57.60;;;;;;5051311;28;20389;-79
2022/03/23 09:57:15;;;;;;;13.95;8.80;;;16.50;58.20;;;;;;5053217;28;20036;-80
2022/03/23 09:59:41;;;;;;;12.70;9.00;;;16.40;57.60;;;;;;5052223;28;20039;-80
2022/03/23 10:02:41;;;;;;;12.95;8.73;;;16.20;59.20;;;;;;5052251;28;20049;-79
2022/03/23 10:05:46;;;;;;;12.80;9.23;;;16.40;58.20;;;;;;5064815;28;20072;-80
2022/03/23 10:08:43;;;;;;;11.57;6.93;;;16.40;59.00;;;;;;5046412;28;20116;-79
2022/03/23 10:11:46;;;;;;;11.88;6.88;;;16.30;57.50;;;;;;5047218;28;20059;-79
2022/03/23 10:14:30;;;;;;;13.00;7.35;;;16.20;57.20;;;;;;5046745;28;20029;-79
2022/03/23 10:17:35;;;;;;;9.95;6.95;;;16.20;55.60;;;;;;5047675;28;20121;-79
2022/03/23 10:20:00;;;;;;;10.93;7.57;;;16.00;60.20;;;;;;5048109;28;20036;-80
2022/03/23 10:22:28;;;;;;;9.23;6.40;;;16.00;59.00;;;;;;5044260;28;20036;-80
2022/03/23 10:24:54;;;;;;;12.15;7.03;;;16.00;59.00;;;;;;5044009;28;20032;-79
2022/03/23 10:27:23;;;;;;;11.23;7.32;;;15.90;59.10;;;;;;5045691;28;20037;-80
2022/03/23 10:29:54;;;;;;;11.80;7.47;;;15.90;60.60;;;;;;5051327;28;20400;-80
2022/03/23 10:32:21;;;;;;;14.25;7.53;;;16.00;60.90;;;;;;5048799;28;20029;-79
2022/03/23 10:34:52;;;;;;;11.40;7.82;;;15.80;62.30;;;;;;5050140;28;20028;-79
2022/03/23 10:37:31;;;;;;;15.38;8.27;;;15.80;61.80;;;;;;5051744;28;20041;-80
2022/03/23 10:40:01;;;;;;;12.93;7.65;;;15.60;62.50;;;;;;5052384;28;20390;-79
2022/03/23 10:42:30;;;;;;;11.57;8.02;;;15.70;61.10;;;;;;5052579;28;20029;-78
2022/03/23 10:45:08;;;;;;;12.48;7.53;;;15.80;62.40;;;;;;5051840;28;20032;-81
2022/03/23 10:47:35;;;;;;;12.05;8.10;;;15.70;62.70;;;;;;5051609;28;20383;-79
2022/03/23 10:50:12;;;;;;;12.80;8.30;;;15.80;64.30;;;;;;5054389;28;20124;-79
2022/03/23 10:52:53;;;;;;;12.15;9.07;;;15.90;63.10;;;;;;5049120;28;20029;-80
2022/03/23 10:55:19;;;;;;;14.95;9.25;;;15.90;63.30;;;;;;5053235;28;20029;-81
2022/03/23 10:57:51;;;;;;;14.07;9.15;;;15.50;61.20;;;;;;5052352;28;20385;-80
2022/03/23 11:00:27;;;;;;;14.40;9.13;;;15.50;62.60;;;;;;5050540;28;20445;-78
2022/03/23 11:02:53;;;;;;;14.50;8.88;;;15.60;63.30;;;;;;5043992;28;20037;-82
2022/03/23 11:05:41;;;;;;;15.05;8.35;;;15.70;63.00;;;;;;5047905;28;20033;-79
2022/03/23 11:08:23;;;;;;;14.32;8.95;;;16.00;63.20;;;;;;5049906;28;20091;-80
2022/03/23 11:16:30;;;;;;;13.77;9.05;;;15.60;63.10;;;;;;5047842;28;20422;-79
2022/03/23 11:18:57;;;;;;;14.35;9.55;;;15.50;64.40;;;;;;5050637;28;20099;-81
2022/03/23 11:21:23;;;;;;;13.07;9.05;;;15.70;65.00;;;;;;5050822;28;20440;-80
2022/03/23 11:23:49;;;;;;;16.55;9.80;;;15.80;65.30;;;;;;5047440;28;20517;-81
2022/03/23 11:26:15;;;;;;;16.13;10.70;;;15.80;63.70;;;;;;5048558;28;20037;-78
2022/03/23 11:28:44;;;;;;;15.98;9.05;;;15.70;65.40;;;;;;5049240;28;20075;-83
2022/03/23 11:31:12;;;;;;;12.07;8.65;;;15.90;65.60;;;;;;5044966;28;20037;-80
2022/03/23 11:33:38;;;;;;;13.77;8.45;;;15.90;64.20;;;;;;5050461;28;20016;-79
2022/03/23 11:36:08;;;;;;;12.85;9.10;;;15.90;64.60;;;;;;5047167;28;20041;-79
2022/03/23 11:38:34;;;;;;;14.82;8.73;;;16.20;64.50;;;;;;5041573;28;20033;-84
2022/03/23 11:41:00;;;;;;;10.55;7.20;;;16.30;65.40;;;;;;5047060;28;20043;-77
2022/03/23 11:43:34;;;;;;;10.32;7.95;;;16.40;62.30;;;;;;5045846;28;20120;-78
2022/03/23 11:46:01;;;;;;;;;;;16.40;61.30;;;;;;5048786;28;20059;-80
2022/03/23 11:48:44;;;;;;;11.35;7.63;;;16.30;63.70;;;;;;5046952;28;19909;-81
2022/03/23 11:51:16;;;;;;;10.30;6.93;;;16.50;63.50;;;;;;5044799;28;20477;-81
2022/03/23 11:54:06;;;;;;;11.52;7.05;;;16.60;58.70;;;;;;5040286;28;20037;-79
2022/03/23 11:56:47;;;;;;;9.27;6.90;;;16.40;62.80;;;;;;5042805;28;20033;-80
2022/03/23 11:59:22;;;;;;;11.20;6.63;;;16.40;57.80;;;;;;5046816;28;20033;-80
2022/03/23 12:01:50;;;;;;;10.85;7.07;;;16.50;57.10;;;;;;5044237;28;20106;-80
2022/03/23 12:04:21;;;;;;;10.98;6.72;;;16.40;57.80;;;;;;5044515;28;20100;-82
2022/03/23 12:06:56;;;;;;;10.95;6.57;;;16.50;57.80;;;;;;5042058;28;20044;-81
2022/03/23 12:09:30;;;;;;;11.15;7.28;;;16.40;58.70;;;;;;5045626;28;20036;-82
2022/03/23 12:11:57;;;;;;;11.23;7.90;;;16.40;54.90;;;;;;5042949;28;20018;-80
2022/03/23 12:14:32;;;;;;;9.90;7.15;;;16.30;50.60;;;;;;5046633;28;20083;-81
2022/03/23 12:16:58;;;;;;;11.00;6.97;;;16.60;55.90;;;;;;5048397;28;20025;-81
2022/03/23 12:19:24;;;;;;;8.68;6.90;;;16.60;53.10;;;;;;5045905;28;20039;-76
2022/03/23 12:22:10;;;;;;;10.52;7.55;;;16.70;53.10;;;;;;5052629;28;20059;-78
2022/03/23 12:25:03;;;;;;;11.90;7.45;;;16.70;51.50;;;;;;5053667;28;20099;-80
2022/03/23 12:28:06;;;;;;;10.20;7.15;;;16.80;53.40;;;;;;5052649;28;20033;-81
2022/03/23 12:30:41;;;;;;;9.88;6.22;;;16.80;54.60;;;;;;5068856;28;20029;-80
2022/03/23 12:33:11;;;;;;;10.98;6.70;;;16.90;54.50;;;;;;5049646;28;20118;-80
2022/03/23 12:35:37;;;;;;;11.00;7.15;;;16.90;55.40;;;;;;5044357;28;20433;-80
2022/03/23 12:38:04;;;;;;;10.93;6.63;;;16.90;56.20;;;;;;5049342;28;20055;-79
2022/03/23 12:40:41;;;;;;;13.85;7.35;;;16.90;55.10;;;;;;5047817;28;20041;-80
2022/03/23 12:43:07;;;;;;;11.07;6.43;;;16.80;55.30;;;;;;5056503;28;20036;-80
2022/03/23 12:45:39;;;;;;;13.30;7.22;;;16.90;54.50;;;;;;5047577;28;20024;-78
2022/03/23 12:57:49;;;;;;;13.18;6.75;;;17.10;56.40;;;;;;5048528;28;20071;-77
2022/03/23 12:59:15;;;;;;;10.70;6.95;;;17.10;55.40;;;;;;5048525;28;20044;-80
2022/03/23 13:01:41;;;;;;;12.02;7.20;;;17.20;55.90;;;;;;5047391;28;20058;-80
2022/03/23 13:04:07;;;;;;;13.70;7.55;;;17.20;56.70;;;;;;5048734;28;20041;-79
2022/03/23 13:06:36;;;;;;;13.30;7.45;;;17.20;56.40;;;;;;5050149;28;20025;-79
2022/03/23 13:09:08;;;;;;;10.35;7.05;;;17.00;54.30;;;;;;5044309;28;20032;-79